createdAt,value
2022-11-08T00:00:11.596Z,9.71
2022-11-08T00:02:10.268Z,9.61
2022-11-08T00:04:10.762Z,9.55
2022-11-08T00:06:26.243Z,9.54
2022-11-08T00:08:42.657Z,9.47
2022-11-08T00:10:58.268Z,9.57
2022-11-08T00:13:15.649Z,9.62
2022-11-08T00:15:13.934Z,9.66
2022-11-08T00:17:12.124Z,9.68
2022-11-08T00:19:10.515Z,9.65
2022-11-08T00:21:08.736Z,9.59
2022-11-08T00:23:08.857Z,9.53
2022-11-08T00:25:08.055Z,9.46
2022-11-08T00:27:08.359Z,9.44
2022-11-08T00:29:08.847Z,9.44
2022-11-08T00:31:07.849Z,9.50
2022-11-08T00:33:06.174Z,9.52
2022-11-08T00:35:04.864Z,9.52
2022-11-08T00:37:03.646Z,9.46
2022-11-08T00:39:01.925Z,9.47
2022-11-08T00:41:00.084Z,9.47
2022-11-08T00:42:58.232Z,9.47
2022-11-08T00:44:58.090Z,9.45
2022-11-08T00:46:56.386Z,9.38
2022-11-08T00:48:54.844Z,9.33
2022-11-08T00:50:53.287Z,9.30
2022-11-08T00:52:51.550Z,9.28
2022-11-08T00:54:49.755Z,9.29
2022-11-08T00:56:48.451Z,9.40
2022-11-08T00:58:46.528Z,9.47
2022-11-08T01:00:48.590Z,9.47
2022-11-08T01:02:46.847Z,9.53
2022-11-08T01:04:45.229Z,9.56
2022-11-08T01:06:43.565Z,9.58
2022-11-08T01:08:42.227Z,9.56
2022-11-08T01:10:42.388Z,9.49
2022-11-08T01:12:40.682Z,9.47
2022-11-08T01:14:39.006Z,9.44
2022-11-08T01:16:38.561Z,9.43
2022-11-08T01:18:36.793Z,9.47
2022-11-08T01:20:38.736Z,9.52
2022-11-08T01:22:36.786Z,9.54
2022-11-08T01:24:35.174Z,9.53
2022-11-08T01:26:33.362Z,9.48
2022-11-08T01:28:31.619Z,9.45
2022-11-08T01:30:30.115Z,9.46
2022-11-08T01:32:29.684Z,9.48
2022-11-08T01:34:27.882Z,9.45
2022-11-08T01:36:30.447Z,9.43
2022-11-08T01:38:28.835Z,9.45
2022-11-08T01:40:27.266Z,9.49
2022-11-08T01:42:29.374Z,9.57
2022-11-08T01:44:27.688Z,9.58
2022-11-08T01:46:47.134Z,9.65
2022-11-08T01:48:48.759Z,9.72
2022-11-08T01:50:47.286Z,9.71
2022-11-08T01:52:48.951Z,9.62
2022-11-08T01:54:54.355Z,9.54
2022-11-08T01:56:52.554Z,9.51
2022-11-08T01:58:53.740Z,9.52
2022-11-08T02:00:53.745Z,9.57
2022-11-08T02:02:58.388Z,9.61
2022-11-08T02:04:59.223Z,9.62
2022-11-08T02:06:58.189Z,9.65
2022-11-08T02:09:01.534Z,9.67
2022-11-08T02:11:03.859Z,9.58
2022-11-08T02:13:04.977Z,9.52
2022-11-08T02:15:04.543Z,9.51
2022-11-08T02:17:02.990Z,9.48
2022-11-08T02:19:01.468Z,9.49
2022-11-08T02:21:10.028Z,9.54
2022-11-08T02:23:15.442Z,9.49
2022-11-08T02:25:15.654Z,9.49
2022-11-08T02:27:15.479Z,9.52
2022-11-08T02:29:31.645Z,9.58
2022-11-08T02:31:30.023Z,9.50
2022-11-08T02:33:28.405Z,9.45
2022-11-08T02:35:28.921Z,9.37
2022-11-08T02:37:28.427Z,9.32
2022-11-08T02:39:26.831Z,9.30
2022-11-08T02:41:26.670Z,9.37
2022-11-08T02:43:26.058Z,9.44
2022-11-08T02:45:24.210Z,9.52
2022-11-08T02:47:24.329Z,9.52
2022-11-08T02:49:22.650Z,9.53
2022-11-08T02:51:23.903Z,9.58
2022-11-08T02:53:22.295Z,9.56
2022-11-08T02:55:23.840Z,9.52
2022-11-08T02:57:23.751Z,9.47
2022-11-08T02:59:22.029Z,9.44
2022-11-08T03:01:20.329Z,9.44
2022-11-08T03:03:18.591Z,9.51
2022-11-08T03:05:16.863Z,9.55
2022-11-08T03:07:15.135Z,9.51
2022-11-08T03:09:13.890Z,9.56
2022-11-08T03:11:12.114Z,9.59
2022-11-08T03:13:11.731Z,9.64
2022-11-08T03:15:11.958Z,9.67
2022-11-08T03:17:10.386Z,9.60
2022-11-08T03:19:08.537Z,9.53
2022-11-08T03:21:06.979Z,9.53
2022-11-08T03:23:07.703Z,9.53
2022-11-08T03:25:06.998Z,9.56
2022-11-08T03:27:05.415Z,9.67
2022-11-08T03:29:05.045Z,9.74
2022-11-08T03:31:03.182Z,9.78
2022-11-08T03:33:01.716Z,9.77
2022-11-08T03:35:01.067Z,9.77
2022-11-08T03:36:59.488Z,9.72
2022-11-08T03:38:57.791Z,9.70
2022-11-08T03:40:56.060Z,9.57
2022-11-08T03:42:54.449Z,9.52
2022-11-08T03:44:54.057Z,9.48
2022-11-08T03:46:52.567Z,9.50
2022-11-08T03:48:50.908Z,9.55
2022-11-08T03:50:49.311Z,9.62
2022-11-08T03:52:48.993Z,9.56
2022-11-08T03:54:47.193Z,9.51
2022-11-08T03:56:45.537Z,9.41
2022-11-08T03:58:43.887Z,9.33
2022-11-08T04:00:43.589Z,9.28
2022-11-08T04:02:42.219Z,9.28
2022-11-08T04:04:40.626Z,9.27
2022-11-08T04:06:39.552Z,9.29
2022-11-08T04:08:37.768Z,9.37
2022-11-08T04:10:36.471Z,9.39
2022-11-08T04:12:52.455Z,9.37
2022-11-08T04:15:07.672Z,9.34
2022-11-08T04:17:07.372Z,9.34
2022-11-08T04:19:23.471Z,9.31
2022-11-08T04:21:21.822Z,9.30
2022-11-08T04:23:20.463Z,9.31
2022-11-08T04:25:18.922Z,9.31
2022-11-08T04:27:20.249Z,9.32
2022-11-08T04:29:18.433Z,9.38
2022-11-08T04:31:18.464Z,9.44
2022-11-08T04:33:18.146Z,9.47
2022-11-08T04:35:16.601Z,9.48
2022-11-08T04:37:14.667Z,9.43
2022-11-08T04:39:12.821Z,9.39
2022-11-08T04:41:13.391Z,9.35
2022-11-08T04:43:11.809Z,9.34
2022-11-08T04:45:10.973Z,9.30
2022-11-08T04:47:10.251Z,9.31
2022-11-08T04:49:10.045Z,9.32
2022-11-08T04:51:11.513Z,9.37
2022-11-08T04:53:09.805Z,9.41
2022-11-08T04:55:11.297Z,9.48
2022-11-08T04:57:09.479Z,9.43
2022-11-08T04:59:11.854Z,9.44
2022-11-08T05:01:12.846Z,9.38
2022-11-08T05:03:11.222Z,9.32
2022-11-08T05:05:11.524Z,9.28
2022-11-08T05:07:09.685Z,9.29
2022-11-08T05:09:07.779Z,9.29
2022-11-08T05:11:09.001Z,9.37
2022-11-08T05:13:07.235Z,9.40
2022-11-08T05:15:06.082Z,9.42
2022-11-08T05:17:04.256Z,9.49
2022-11-08T05:19:09.212Z,9.46
2022-11-08T05:21:30.600Z,9.59
2022-11-08T05:23:27.842Z,9.64
2022-11-08T05:25:26.193Z,9.60
2022-11-08T05:27:24.550Z,9.55
2022-11-08T05:29:22.780Z,9.58
2022-11-08T05:31:21.180Z,9.62
2022-11-08T05:33:19.428Z,9.62
2022-11-08T05:35:19.061Z,9.71
2022-11-08T05:37:18.787Z,9.83
2022-11-08T05:39:17.220Z,9.84
2022-11-08T05:41:17.416Z,9.88
2022-11-08T05:43:16.823Z,9.88
2022-11-08T05:45:15.295Z,9.84
2022-11-08T05:47:13.571Z,9.82
2022-11-08T05:49:11.757Z,9.83
2022-11-08T05:51:10.049Z,9.83
2022-11-08T05:53:09.624Z,9.90
2022-11-08T05:55:09.019Z,10.01
2022-11-08T05:57:07.175Z,10.16
2022-11-08T05:59:05.960Z,10.28
2022-11-08T06:01:06.500Z,10.33
2022-11-08T06:03:05.353Z,10.38
2022-11-08T06:05:03.877Z,10.34
2022-11-08T06:07:03.415Z,10.33
2022-11-08T06:09:03.092Z,10.33
2022-11-08T06:11:25.553Z,10.37
2022-11-08T06:13:23.818Z,10.32
2022-11-08T06:15:21.952Z,10.40
2022-11-08T06:17:20.197Z,10.51
2022-11-08T06:19:18.460Z,10.61
2022-11-08T06:21:18.868Z,10.79
2022-11-08T06:23:17.327Z,10.74
2022-11-08T06:25:17.307Z,10.89
2022-11-08T06:27:15.927Z,10.77
2022-11-08T06:29:14.660Z,10.88
2022-11-08T06:31:12.838Z,10.87
2022-11-08T06:33:11.100Z,10.87
2022-11-08T06:35:10.432Z,10.88
2022-11-08T06:37:08.768Z,10.82
2022-11-08T06:39:07.234Z,10.85
2022-11-08T06:41:07.017Z,10.85
2022-11-08T06:43:05.436Z,10.96
2022-11-08T06:45:03.993Z,11.03
2022-11-08T06:47:02.356Z,11.19
2022-11-08T06:49:00.438Z,11.33
2022-11-08T06:50:58.684Z,11.30
2022-11-08T06:52:57.841Z,11.28
2022-11-08T06:55:01.115Z,11.26
2022-11-08T06:57:02.166Z,11.22
2022-11-08T06:59:00.649Z,11.25
2022-11-08T07:00:59.043Z,11.26
2022-11-08T07:02:59.005Z,11.28
2022-11-08T07:04:59.468Z,11.28
2022-11-08T07:06:57.760Z,11.34
2022-11-08T07:08:56.040Z,11.43
2022-11-08T07:10:55.003Z,11.57
2022-11-08T07:13:01.338Z,11.61
2022-11-08T07:14:59.394Z,11.53
2022-11-08T07:16:57.668Z,11.58
2022-11-08T07:18:56.007Z,11.57
2022-11-08T07:20:54.676Z,11.47
2022-11-08T07:22:56.236Z,11.50
2022-11-08T07:24:54.413Z,11.51
2022-11-08T07:26:52.680Z,11.51
2022-11-08T07:28:52.296Z,11.52
2022-11-08T07:30:50.966Z,11.53
2022-11-08T07:32:49.135Z,11.63
2022-11-08T07:34:47.374Z,11.71
2022-11-08T07:36:45.539Z,11.60
2022-11-08T07:38:43.685Z,11.64
2022-11-08T07:40:41.977Z,11.56
2022-11-08T07:43:09.623Z,11.50
2022-11-08T07:45:00.630Z,11.53
2022-11-08T07:46:58.829Z,11.69
2022-11-08T07:48:57.221Z,11.76
2022-11-08T07:50:55.740Z,11.85
2022-11-08T07:52:54.248Z,11.80
2022-11-08T07:54:52.578Z,11.70
2022-11-08T07:56:50.764Z,11.75
2022-11-08T07:58:48.942Z,11.62
2022-11-08T08:00:50.017Z,11.46
2022-11-08T08:02:48.382Z,11.45
2022-11-08T08:04:46.584Z,11.49
2022-11-08T08:06:44.969Z,11.69
2022-11-08T08:08:43.402Z,11.87
2022-11-08T08:10:42.410Z,11.93
2022-11-08T08:12:40.623Z,11.99
2022-11-08T08:14:38.712Z,12.07
2022-11-08T08:16:38.511Z,12.18
2022-11-08T08:18:37.706Z,12.21
2022-11-08T08:20:38.258Z,12.26
2022-11-08T08:22:36.374Z,12.33
2022-11-08T08:24:34.539Z,12.11
2022-11-08T08:26:32.898Z,12.07
2022-11-08T08:28:31.138Z,11.95
2022-11-08T08:30:31.795Z,11.95
2022-11-08T08:32:31.788Z,12.19
2022-11-08T08:34:30.301Z,12.38
2022-11-08T08:36:28.594Z,12.39
2022-11-08T08:38:26.796Z,12.44
2022-11-08T08:40:24.981Z,12.50
2022-11-08T08:42:23.373Z,12.61
2022-11-08T08:44:21.403Z,12.66
2022-11-08T08:46:21.747Z,12.69
2022-11-08T08:48:21.818Z,12.63
2022-11-08T08:50:23.790Z,12.67
2022-11-08T08:52:22.188Z,12.65
2022-11-08T08:54:22.012Z,12.66
2022-11-08T08:56:22.163Z,12.78
2022-11-08T08:58:21.475Z,12.97
2022-11-08T09:02:41.474Z,13.30
2022-11-08T09:04:42.381Z,13.36
2022-11-08T09:06:40.748Z,13.52
2022-11-08T09:08:39.139Z,13.56
2022-11-08T09:10:37.511Z,13.54
2022-11-08T09:12:36.506Z,13.66
2022-11-08T09:14:34.681Z,13.77
2022-11-08T09:16:32.922Z,13.78
2022-11-08T09:18:40.746Z,13.92
2022-11-08T09:20:40.555Z,13.89
2022-11-08T09:22:39.494Z,14.19
2022-11-08T09:24:37.709Z,14.17
2022-11-08T09:26:37.738Z,14.52
2022-11-08T09:28:37.424Z,14.68
2022-11-08T09:30:36.141Z,14.61
2022-11-08T09:32:59.111Z,14.52
2022-11-08T09:34:52.859Z,14.61
2022-11-08T09:36:52.747Z,14.63
2022-11-08T09:38:51.139Z,14.37
2022-11-08T09:41:03.956Z,14.23
2022-11-08T09:43:18.402Z,14.30
2022-11-08T09:45:21.790Z,14.42
2022-11-08T09:47:24.890Z,14.61
2022-11-08T09:49:29.703Z,14.90
2022-11-08T09:51:31.785Z,14.90
2022-11-08T09:53:39.615Z,14.98
2022-11-08T09:55:41.000Z,14.55
2022-11-08T09:57:51.787Z,14.69
2022-11-08T09:59:53.833Z,14.83
2022-11-08T10:01:52.328Z,14.79
2022-11-08T10:03:54.602Z,14.71
2022-11-08T10:06:14.113Z,15.00
2022-11-08T10:08:22.744Z,15.04
2022-11-08T10:10:55.246Z,15.29
2022-11-08T10:13:05.161Z,15.55
2022-11-08T10:15:17.266Z,15.59
2022-11-08T10:17:36.086Z,15.37
2022-11-08T10:20:06.714Z,15.42
2022-11-08T10:22:13.648Z,15.57
2022-11-08T10:24:18.076Z,15.56
2022-11-08T10:26:25.744Z,15.72
2022-11-08T10:28:33.518Z,15.77
2022-11-08T10:30:35.600Z,15.35
2022-11-08T10:32:35.958Z,15.30
2022-11-08T10:34:42.545Z,15.92
2022-11-08T10:36:45.420Z,16.49
2022-11-08T10:38:56.355Z,17.09
2022-11-08T10:41:01.865Z,17.02
2022-11-08T10:43:09.511Z,16.80
2022-11-08T10:45:10.904Z,16.57
2022-11-08T10:47:15.924Z,16.43
2022-11-08T10:49:20.926Z,16.31
2022-11-08T10:51:19.219Z,16.23
2022-11-08T10:53:23.694Z,15.91
2022-11-08T10:55:27.637Z,16.12
2022-11-08T10:57:37.310Z,16.20
2022-11-08T10:59:36.970Z,16.71
2022-11-08T11:01:35.505Z,16.83
2022-11-08T11:03:34.456Z,16.77
2022-11-08T11:05:36.300Z,16.86
2022-11-08T11:08:29.084Z,16.73
2022-11-08T11:10:30.775Z,16.66
2022-11-08T11:12:35.202Z,16.73
2022-11-08T11:14:42.512Z,16.73
2022-11-08T11:21:06.462Z,16.79
2022-11-08T11:23:12.082Z,16.44
2022-11-08T11:25:17.160Z,16.41
2022-11-08T11:31:42.002Z,16.25
2022-11-08T11:34:13.154Z,16.23
2022-11-08T11:36:31.447Z,16.18
2022-11-08T11:38:37.179Z,16.53
2022-11-08T11:40:39.904Z,16.57
2022-11-08T11:42:47.385Z,16.80
2022-11-08T11:45:02.004Z,16.95
2022-11-08T11:47:14.393Z,16.87
2022-11-08T11:49:18.345Z,16.74
2022-11-08T11:51:19.783Z,16.60
2022-11-08T11:53:22.953Z,16.56
2022-11-08T11:55:29.880Z,16.44
2022-11-08T11:57:43.935Z,16.31
2022-11-08T11:59:54.821Z,16.17
2022-11-08T12:04:45.064Z,16.48
2022-11-08T12:07:07.969Z,16.26
2022-11-08T12:09:31.662Z,16.30
2022-11-08T12:11:59.607Z,16.47
2022-11-08T12:14:17.851Z,16.56
2022-11-08T12:16:21.157Z,16.02
2022-11-08T12:18:54.105Z,15.90
2022-11-08T12:21:05.286Z,15.81
2022-11-08T12:23:39.327Z,15.92
2022-11-08T12:25:45.096Z,15.99
2022-11-08T12:27:51.709Z,16.06
2022-11-08T12:30:00.601Z,15.90
2022-11-08T12:32:24.219Z,15.88
2022-11-08T12:34:25.403Z,15.72
2022-11-08T12:36:34.559Z,15.42
2022-11-08T12:38:39.171Z,15.54
2022-11-08T12:40:50.132Z,15.55
2022-11-08T12:43:04.208Z,15.52
2022-11-08T12:45:33.238Z,15.27
2022-11-08T12:47:39.542Z,15.20
2022-11-08T12:49:48.780Z,15.27
2022-11-08T12:52:07.896Z,15.32
2022-11-08T12:54:21.335Z,15.36
2022-11-08T12:56:24.227Z,15.23
2022-11-08T12:58:34.554Z,15.27
2022-11-08T13:00:36.179Z,15.21
2022-11-08T13:02:39.000Z,15.21
2022-11-08T13:04:56.330Z,14.95
2022-11-08T13:07:01.624Z,14.96
2022-11-08T13:09:08.904Z,14.94
2022-11-08T13:11:13.484Z,15.01
2022-11-08T13:13:25.836Z,14.98
2022-11-08T13:15:26.796Z,14.99
2022-11-08T13:17:29.585Z,15.13
2022-11-08T13:19:30.221Z,15.16
2022-11-08T13:21:42.169Z,15.08
2022-11-08T13:23:41.963Z,14.92
2022-11-08T13:25:42.771Z,14.81
2022-11-08T13:27:42.905Z,14.72
2022-11-08T13:29:41.200Z,14.73
2022-11-08T13:31:50.766Z,14.76
2022-11-08T13:34:08.364Z,14.77
2022-11-08T13:36:21.114Z,14.75
2022-11-08T13:38:31.184Z,14.76
2022-11-08T13:40:43.971Z,14.81
2022-11-08T13:42:59.400Z,14.79
2022-11-08T13:45:01.405Z,14.66
2022-11-08T13:47:03.118Z,14.66
2022-11-08T13:49:14.612Z,14.70
2022-11-08T13:51:30.308Z,14.77
2022-11-08T13:53:46.288Z,14.72
2022-11-08T13:55:50.960Z,14.75
2022-11-08T13:58:01.369Z,14.69
2022-11-08T14:00:00.399Z,14.62
2022-11-08T14:02:00.802Z,14.56
2022-11-08T14:04:00.055Z,14.50
2022-11-08T14:06:01.927Z,14.36
2022-11-08T14:08:23.087Z,14.25
2022-11-08T14:10:28.142Z,14.20
2022-11-08T14:12:35.663Z,14.16
2022-11-08T14:14:57.978Z,14.28
2022-11-08T14:17:14.766Z,14.28
2022-11-08T14:19:20.636Z,14.12
2022-11-08T14:21:23.818Z,14.12
2022-11-08T14:23:28.582Z,14.07
2022-11-08T14:25:31.569Z,14.01
2022-11-08T14:27:37.709Z,13.81
2022-11-08T14:29:37.700Z,13.65
2022-11-08T14:31:40.555Z,13.55
2022-11-08T14:33:43.608Z,13.40
2022-11-08T14:35:42.226Z,13.40
2022-11-08T14:37:44.216Z,13.39
2022-11-08T14:39:50.118Z,13.36
2022-11-08T14:41:56.105Z,13.30
2022-11-08T14:44:01.617Z,13.22
2022-11-08T14:46:01.418Z,13.26
2022-11-08T14:48:05.214Z,13.25
2022-11-08T14:50:06.521Z,13.17
2022-11-08T14:52:16.148Z,13.14
2022-11-08T14:54:19.253Z,13.04
2022-11-08T14:56:20.089Z,12.89
2022-11-08T14:58:19.543Z,12.78
2022-11-08T15:00:22.182Z,12.68
2022-11-08T15:02:20.554Z,12.68
2022-11-08T15:04:21.650Z,12.68
2022-11-08T15:06:20.224Z,12.60
2022-11-08T15:08:29.138Z,12.48
2022-11-08T15:10:28.698Z,12.40
2022-11-08T15:12:27.116Z,12.36
2022-11-08T15:14:28.449Z,12.32
2022-11-08T15:16:28.545Z,12.25
2022-11-08T15:18:29.271Z,12.17
2022-11-08T15:20:27.358Z,12.08
2022-11-08T15:22:30.297Z,12.07
2022-11-08T15:24:36.934Z,12.13
2022-11-08T15:26:37.456Z,12.13
2022-11-08T15:28:35.719Z,12.10
2022-11-08T15:30:38.748Z,12.09
2022-11-08T15:32:43.632Z,12.10
2022-11-08T15:34:42.853Z,11.98
2022-11-08T15:36:41.301Z,11.93
2022-11-08T15:38:41.598Z,11.92
2022-11-08T15:40:50.435Z,11.93
2022-11-08T15:42:51.036Z,12.00
2022-11-08T15:45:00.331Z,12.06
2022-11-08T15:46:58.523Z,12.09
2022-11-08T15:48:59.770Z,12.12
2022-11-08T15:50:58.691Z,11.99
2022-11-08T15:52:58.663Z,11.96
2022-11-08T15:54:57.056Z,11.97
2022-11-08T15:56:56.763Z,11.94
2022-11-08T15:58:55.136Z,11.87
2022-11-08T16:00:53.559Z,11.77
2022-11-08T16:02:52.431Z,11.69
2022-11-08T16:04:52.143Z,11.59
2022-11-08T16:06:50.365Z,11.51
2022-11-08T16:08:48.786Z,11.45
2022-11-08T16:10:48.749Z,11.49
2022-11-08T16:12:49.443Z,11.46
2022-11-08T16:14:48.166Z,11.39
2022-11-08T16:16:46.648Z,11.30
2022-11-08T16:18:45.810Z,11.24
2022-11-08T16:20:45.465Z,11.15
2022-11-08T16:22:44.038Z,11.13
2022-11-08T16:24:42.462Z,11.07
2022-11-08T16:26:42.720Z,11.04
2022-11-08T16:28:42.537Z,10.99
2022-11-08T16:30:46.149Z,10.94
2022-11-08T16:32:44.916Z,10.88
2022-11-08T16:34:43.210Z,10.86
2022-11-08T16:36:45.632Z,10.79
2022-11-08T16:38:52.053Z,10.75
2022-11-08T16:40:50.398Z,10.80
2022-11-08T16:42:50.792Z,10.83
2022-11-08T16:44:49.696Z,10.77
2022-11-08T16:46:48.757Z,10.71
2022-11-08T16:48:49.458Z,10.69
2022-11-08T16:50:48.085Z,10.67
2022-11-08T16:52:48.213Z,10.68
2022-11-08T16:54:47.280Z,10.67
2022-11-08T16:56:45.620Z,10.67
2022-11-08T16:58:49.169Z,10.72
2022-11-08T17:00:48.072Z,10.81
2022-11-08T17:02:49.510Z,10.85
2022-11-08T17:04:48.191Z,10.74
2022-11-08T17:06:46.500Z,10.73
2022-11-08T17:08:46.561Z,10.73
2022-11-08T17:10:45.588Z,10.64
2022-11-08T17:12:44.103Z,10.66
2022-11-08T17:14:42.841Z,10.66
2022-11-08T17:16:41.824Z,10.70
2022-11-08T17:18:40.130Z,10.72
2022-11-08T17:20:39.238Z,10.77
2022-11-08T17:22:38.082Z,10.84
2022-11-08T17:24:37.757Z,10.94
2022-11-08T17:26:35.965Z,10.89
2022-11-08T17:28:34.899Z,10.86
2022-11-08T17:30:33.963Z,10.87
2022-11-08T17:32:32.385Z,10.90
2022-11-08T17:34:30.811Z,11.11
2022-11-08T17:36:29.258Z,11.24
2022-11-08T17:38:27.665Z,11.21
2022-11-08T17:40:27.570Z,11.23
2022-11-08T17:42:26.232Z,11.19
2022-11-08T17:44:26.253Z,11.27
2022-11-08T17:46:24.395Z,11.17
2022-11-08T17:48:22.827Z,11.24
2022-11-08T17:50:21.045Z,11.17
2022-11-08T17:52:19.927Z,11.10
2022-11-08T17:54:18.366Z,11.04
2022-11-08T17:56:17.861Z,10.95
2022-11-08T17:58:16.406Z,11.01
2022-11-08T18:00:16.405Z,11.07
2022-11-08T18:02:16.036Z,11.04
2022-11-08T18:04:14.561Z,11.07
2022-11-08T18:06:14.862Z,11.02
2022-11-08T18:08:13.623Z,11.06
2022-11-08T18:10:11.961Z,11.09
2022-11-08T18:12:11.752Z,11.03
2022-11-08T18:14:10.311Z,10.86
2022-11-08T18:16:10.966Z,10.82
2022-11-08T18:18:09.925Z,10.75
2022-11-08T18:20:11.949Z,10.75
2022-11-08T18:22:10.612Z,10.84
2022-11-08T18:24:09.125Z,10.85
2022-11-08T18:26:07.645Z,10.86
2022-11-08T18:28:07.664Z,10.85
2022-11-08T18:30:07.183Z,10.94
2022-11-08T18:32:06.145Z,11.02
2022-11-08T18:34:04.462Z,10.97
2022-11-08T18:36:06.978Z,10.87
2022-11-08T18:38:05.620Z,10.75
2022-11-08T18:40:06.456Z,10.68
2022-11-08T18:42:05.464Z,10.73
2022-11-08T18:44:06.269Z,10.81
2022-11-08T18:46:05.348Z,10.80
2022-11-08T18:48:03.790Z,10.87
2022-11-08T18:50:02.651Z,11.01
2022-11-08T18:52:01.953Z,11.02
2022-11-08T18:54:00.591Z,10.99
2022-11-08T18:55:58.961Z,10.94
2022-11-08T18:57:57.266Z,10.87
2022-11-08T19:00:00.959Z,10.88
2022-11-08T19:01:59.760Z,10.90
2022-11-08T19:03:58.271Z,11.01
2022-11-08T19:05:57.354Z,11.12
2022-11-08T19:07:55.786Z,10.99
2022-11-08T19:09:54.209Z,10.89
2022-11-08T19:11:53.621Z,10.90
2022-11-08T19:13:51.777Z,10.92
2022-11-08T19:15:59.119Z,10.74
2022-11-08T19:17:57.959Z,10.62
2022-11-08T19:19:56.284Z,10.52
2022-11-08T19:21:54.614Z,10.50
2022-11-08T19:23:53.796Z,10.63
2022-11-08T19:25:57.337Z,10.76
2022-11-08T19:27:55.737Z,10.75
2022-11-08T19:29:54.008Z,10.78
2022-11-08T19:31:53.904Z,10.76
2022-11-08T19:33:54.577Z,10.74
2022-11-08T19:35:53.635Z,10.64
2022-11-08T19:37:52.055Z,10.63
2022-11-08T19:39:50.350Z,10.58
2022-11-08T19:41:49.035Z,10.48
2022-11-08T19:43:50.634Z,10.42
2022-11-08T19:45:54.213Z,10.33
2022-11-08T19:47:53.896Z,10.36
2022-11-08T19:49:52.298Z,10.47
2022-11-08T19:51:50.838Z,10.52
2022-11-08T19:53:50.252Z,10.59
2022-11-08T19:55:48.546Z,10.65
2022-11-08T19:57:47.584Z,10.67
2022-11-08T19:59:46.156Z,10.62
2022-11-08T20:02:49.896Z,10.63
2022-11-08T20:04:50.473Z,10.49
2022-11-08T20:06:49.079Z,10.41
2022-11-08T20:08:48.793Z,10.34
2022-11-08T20:10:47.247Z,10.25
2022-11-08T20:12:45.933Z,10.16
2022-11-08T20:14:44.162Z,10.16
2022-11-08T20:16:50.654Z,10.10
2022-11-08T20:18:51.585Z,10.04
2022-11-08T20:20:51.441Z,10.03
2022-11-08T20:22:49.745Z,10.03
2022-11-08T20:24:48.168Z,10.13
2022-11-08T20:26:47.156Z,10.27
2022-11-08T20:28:55.360Z,10.30
2022-11-08T20:30:54.765Z,10.30
2022-11-08T20:32:53.139Z,10.30
2022-11-08T20:34:51.341Z,10.35
2022-11-08T20:36:50.994Z,10.36
2022-11-08T20:38:49.404Z,10.35
2022-11-08T20:40:47.828Z,10.29
2022-11-08T20:42:46.126Z,10.23
2022-11-08T20:44:44.629Z,10.23
2022-11-08T20:46:43.668Z,10.13
2022-11-08T20:48:44.055Z,10.00
2022-11-08T20:50:42.599Z,9.95
2022-11-08T20:52:42.956Z,9.87
2022-11-08T20:54:43.867Z,9.79
2022-11-08T20:56:42.533Z,9.66
2022-11-08T20:58:41.427Z,9.58
2022-11-08T21:00:57.735Z,9.58
2022-11-08T21:02:56.746Z,9.57
2022-11-08T21:04:55.041Z,9.52
2022-11-08T21:07:25.196Z,9.63
2022-11-08T21:09:36.398Z,9.66
2022-11-08T21:11:34.583Z,9.58
2022-11-08T21:13:35.027Z,9.53
2022-11-08T21:15:33.178Z,9.56
2022-11-08T21:17:31.402Z,9.52
2022-11-08T21:19:29.832Z,9.46
2022-11-08T21:21:28.473Z,9.33
2022-11-08T21:23:26.763Z,9.21
2022-11-08T21:25:26.204Z,9.12
2022-11-08T21:27:29.404Z,9.09
2022-11-08T21:29:29.191Z,9.07
2022-11-08T21:31:29.252Z,9.12
2022-11-08T21:33:27.935Z,9.06
2022-11-08T21:35:26.208Z,8.98
2022-11-08T21:37:24.368Z,8.88
2022-11-08T21:39:24.877Z,8.87
2022-11-08T21:41:24.769Z,8.80
2022-11-08T21:43:25.965Z,8.71
2022-11-08T21:45:26.032Z,8.57
2022-11-08T21:47:24.460Z,8.49
2022-11-08T21:49:22.817Z,8.46
2022-11-08T21:51:22.234Z,8.41
2022-11-08T21:53:20.571Z,8.41
2022-11-08T21:55:19.202Z,8.49
2022-11-08T21:57:18.815Z,8.54
2022-11-08T21:59:17.272Z,8.52
2022-11-08T22:01:15.539Z,8.51
2022-11-08T22:03:13.794Z,8.53
2022-11-08T22:05:12.733Z,8.46
2022-11-08T22:07:13.020Z,8.41
2022-11-08T22:09:11.257Z,8.27
2022-11-08T22:11:09.814Z,8.21
2022-11-08T22:13:09.710Z,8.12
2022-11-08T22:15:09.948Z,8.12
2022-11-08T22:17:08.044Z,8.08
2022-11-08T22:19:09.889Z,8.05
2022-11-08T22:21:29.426Z,8.05
2022-11-08T22:23:27.986Z,8.10
2022-11-08T22:25:26.280Z,8.07
2022-11-08T22:27:24.764Z,8.01
2022-11-08T22:29:24.668Z,7.93
2022-11-08T22:31:23.089Z,7.86
2022-11-08T22:33:22.205Z,7.88
2022-11-08T22:35:23.245Z,7.91
2022-11-08T22:37:24.630Z,7.91
2022-11-08T22:39:24.386Z,7.85
2022-11-08T22:41:23.620Z,7.87
2022-11-08T22:43:22.078Z,7.86
2022-11-08T22:45:21.670Z,7.80
2022-11-08T22:47:22.608Z,7.83
2022-11-08T22:49:20.725Z,7.83
2022-11-08T22:51:19.027Z,7.76
2022-11-08T22:53:17.471Z,7.69
2022-11-08T22:55:15.840Z,7.66
2022-11-08T22:57:14.058Z,7.59
2022-11-08T22:59:12.867Z,7.55
2022-11-08T23:01:14.767Z,7.51
2022-11-08T23:03:13.069Z,7.48
2022-11-08T23:05:14.186Z,7.38
2022-11-08T23:07:12.445Z,7.39
2022-11-08T23:09:11.003Z,7.38
2022-11-08T23:11:26.766Z,7.33
2022-11-08T23:13:42.323Z,7.30
2022-11-08T23:15:57.569Z,7.34
2022-11-08T23:17:57.217Z,7.33
2022-11-08T23:20:13.186Z,7.32
2022-11-08T23:22:30.624Z,7.26
2022-11-08T23:24:29.145Z,7.22
2022-11-08T23:26:44.842Z,7.26
2022-11-08T23:29:00.398Z,7.27
2022-11-08T23:31:31.268Z,7.20
2022-11-08T23:33:30.958Z,7.26
2022-11-08T23:35:29.289Z,7.33
2022-11-08T23:37:27.814Z,7.40
2022-11-08T23:39:26.102Z,7.45
2022-11-08T23:41:42.292Z,7.53
2022-11-08T23:43:57.716Z,7.61
2022-11-08T23:45:55.816Z,7.64
2022-11-08T23:47:54.033Z,7.68
2022-11-08T23:49:53.649Z,7.79
2022-11-08T23:51:52.360Z,7.85
2022-11-08T23:53:50.700Z,7.87
2022-11-08T23:55:49.111Z,7.87
2022-11-08T23:57:48.890Z,7.88
2022-11-08T23:59:47.777Z,7.88
